createdAt,value
2022-10-16T00:00:05.157Z,999
2022-10-16T00:03:05.147Z,999
2022-10-16T00:06:05.180Z,999
2022-10-16T00:09:05.227Z,999
2022-10-16T00:12:05.431Z,999
2022-10-16T00:15:05.290Z,999
2022-10-16T00:18:05.144Z,999
2022-10-16T00:21:05.201Z,999
2022-10-16T00:24:15.628Z,999
2022-10-16T00:27:05.159Z,999
2022-10-16T00:30:05.296Z,999
2022-10-16T00:33:05.397Z,999
2022-10-16T00:36:06.034Z,999
2022-10-16T00:42:05.246Z,999
2022-10-16T00:45:05.109Z,999
2022-10-16T00:51:05.208Z,999
2022-10-16T00:54:05.092Z,999
2022-10-16T00:57:05.357Z,999
2022-10-16T01:00:05.243Z,999
2022-10-16T01:03:05.136Z,999
2022-10-16T01:06:05.165Z,999
2022-10-16T01:09:05.215Z,999
2022-10-16T01:12:05.175Z,999
2022-10-16T01:15:05.243Z,999
2022-10-16T01:18:05.124Z,999
2022-10-16T01:21:05.281Z,999
2022-10-16T01:24:05.118Z,999
2022-10-16T01:27:05.198Z,999
2022-10-16T01:30:05.483Z,999
2022-10-16T01:33:05.111Z,999
2022-10-16T01:36:05.163Z,999
2022-10-16T01:39:05.212Z,999
2022-10-16T01:42:05.978Z,999
2022-10-16T01:45:05.261Z,999
2022-10-16T01:48:05.214Z,999
2022-10-16T01:51:05.262Z,1000
2022-10-16T01:54:05.057Z,999
2022-10-16T01:57:05.124Z,999
2022-10-16T02:00:05.135Z,999
2022-10-16T02:03:05.166Z,999
2022-10-16T02:06:05.125Z,999
2022-10-16T02:09:05.191Z,999
2022-10-16T02:12:05.144Z,999
2022-10-16T02:15:05.195Z,999
2022-10-16T02:18:05.099Z,999
2022-10-16T02:21:05.133Z,999
2022-10-16T02:24:05.171Z,999
2022-10-16T02:27:05.118Z,999
2022-10-16T02:30:05.166Z,999
2022-10-16T02:33:05.110Z,999
2022-10-16T02:36:05.109Z,999
2022-10-16T02:39:05.125Z,999
2022-10-16T02:42:05.208Z,999
2022-10-16T02:45:05.144Z,999
2022-10-16T02:48:05.179Z,999
2022-10-16T02:51:05.098Z,1000
2022-10-16T02:54:05.153Z,1000
2022-10-16T02:57:05.116Z,1000
2022-10-16T03:00:05.132Z,1000
2022-10-16T03:03:05.136Z,1000
2022-10-16T03:06:05.125Z,1000
2022-10-16T03:09:05.072Z,1000
2022-10-16T03:12:05.099Z,1000
2022-10-16T03:15:05.116Z,1000
2022-10-16T03:18:05.124Z,999
2022-10-16T03:21:05.148Z,999
2022-10-16T03:24:05.134Z,999
2022-10-16T03:27:05.116Z,999
2022-10-16T03:30:05.107Z,999
2022-10-16T03:33:05.143Z,999
2022-10-16T03:36:05.145Z,999
2022-10-16T03:39:05.102Z,999
2022-10-16T03:42:05.080Z,999
2022-10-16T03:45:05.069Z,1000
2022-10-16T03:48:05.129Z,1000
2022-10-16T03:51:05.082Z,1000
2022-10-16T03:54:05.119Z,1000
2022-10-16T03:57:05.175Z,1000
2022-10-16T04:00:05.242Z,1000
2022-10-16T04:03:05.099Z,1000
2022-10-16T04:06:05.101Z,1000
2022-10-16T04:09:05.182Z,1000
2022-10-16T04:12:05.146Z,1000
2022-10-16T04:15:05.106Z,1000
2022-10-16T04:18:05.108Z,1000
2022-10-16T04:21:05.476Z,1000
2022-10-16T04:24:05.149Z,1000
2022-10-16T04:27:05.338Z,1000
2022-10-16T04:30:05.162Z,1000
2022-10-16T04:36:05.168Z,1000
2022-10-16T04:39:05.118Z,1000
2022-10-16T04:42:05.118Z,1000
2022-10-16T04:45:05.094Z,1001
2022-10-16T04:48:05.156Z,1001
2022-10-16T04:51:05.119Z,1001
2022-10-16T04:54:05.128Z,1001
2022-10-16T04:57:05.083Z,1001
2022-10-16T05:00:05.154Z,1001
2022-10-16T05:03:05.616Z,1000
2022-10-16T05:06:05.140Z,1000
2022-10-16T05:09:05.177Z,1000
2022-10-16T05:12:05.146Z,1000
2022-10-16T05:15:05.124Z,1000
2022-10-16T05:18:05.143Z,1000
2022-10-16T05:21:05.133Z,1000
2022-10-16T05:24:05.119Z,1000
2022-10-16T05:27:05.108Z,1000
2022-10-16T05:30:06.437Z,1000
2022-10-16T05:33:05.314Z,1000
2022-10-16T05:36:05.140Z,1000
2022-10-16T05:39:05.087Z,1000
2022-10-16T05:42:05.051Z,1000
2022-10-16T05:45:05.066Z,1001
2022-10-16T05:48:05.137Z,1001
2022-10-16T05:51:05.082Z,1001
2022-10-16T05:54:05.083Z,1001
2022-10-16T05:57:05.045Z,1000
2022-10-16T06:00:05.139Z,1000
2022-10-16T06:03:05.131Z,1000
2022-10-16T06:06:05.957Z,1001
2022-10-16T06:09:05.110Z,1001
2022-10-16T06:12:05.139Z,1001
2022-10-16T06:15:05.245Z,1001
2022-10-16T06:18:05.146Z,1001
2022-10-16T06:21:05.117Z,1001
2022-10-16T06:24:05.120Z,1001
2022-10-16T06:27:05.184Z,1001
2022-10-16T06:30:05.153Z,1001
2022-10-16T06:33:05.066Z,1001
2022-10-16T06:36:05.152Z,1001
2022-10-16T06:39:05.116Z,1001
2022-10-16T06:45:05.105Z,1001
2022-10-16T06:48:05.126Z,1001
2022-10-16T06:54:08.952Z,1001
2022-10-16T06:57:05.117Z,1001
2022-10-16T07:00:05.124Z,1001
2022-10-16T07:03:05.109Z,1001
2022-10-16T07:06:05.106Z,1001
2022-10-16T07:09:05.097Z,1001
2022-10-16T07:12:05.103Z,1001
2022-10-16T07:15:05.134Z,1001
2022-10-16T07:18:05.120Z,1002
2022-10-16T07:21:05.130Z,1002
2022-10-16T07:24:05.106Z,1002
2022-10-16T07:27:05.085Z,1002
2022-10-16T07:30:12.680Z,1002
2022-10-16T07:33:05.043Z,1002
2022-10-16T07:36:05.138Z,1002
2022-10-16T07:39:05.290Z,1002
2022-10-16T07:42:05.083Z,1002
2022-10-16T07:45:05.099Z,1002
2022-10-16T07:48:05.168Z,1002
2022-10-16T07:51:05.093Z,1002
2022-10-16T07:54:05.123Z,1002
2022-10-16T07:57:05.131Z,1002
2022-10-16T08:00:05.249Z,1002
2022-10-16T08:03:05.098Z,1002
2022-10-16T08:06:05.107Z,1002
2022-10-16T08:09:05.103Z,1002
2022-10-16T08:12:07.061Z,1002
2022-10-16T08:15:05.119Z,1002
2022-10-16T08:18:05.123Z,1002
2022-10-16T08:21:05.094Z,1002
2022-10-16T08:24:05.127Z,1002
2022-10-16T08:27:05.089Z,1002
2022-10-16T08:30:05.175Z,1003
2022-10-16T08:33:05.112Z,1003
2022-10-16T08:36:05.096Z,1003
2022-10-16T08:39:05.139Z,1002
2022-10-16T08:42:05.123Z,1002
2022-10-16T08:45:05.197Z,1002
2022-10-16T08:48:05.455Z,1002
2022-10-16T08:51:05.068Z,1002
2022-10-16T08:54:05.337Z,1002
2022-10-16T08:57:05.158Z,1002
2022-10-16T09:00:05.271Z,1002
2022-10-16T09:03:05.117Z,1002
2022-10-16T09:06:05.121Z,1002
2022-10-16T09:09:05.100Z,1002
2022-10-16T09:12:05.111Z,1002
2022-10-16T09:15:05.140Z,1002
2022-10-16T09:18:05.384Z,1002
2022-10-16T09:21:05.119Z,1003
2022-10-16T09:24:05.089Z,1003
2022-10-16T09:27:05.123Z,1003
2022-10-16T09:30:05.147Z,1003
2022-10-16T09:33:05.160Z,1003
2022-10-16T09:36:05.076Z,1003
2022-10-16T09:39:05.183Z,1003
2022-10-16T09:42:05.074Z,1003
2022-10-16T09:45:05.082Z,1003
2022-10-16T09:48:06.015Z,1003
2022-10-16T09:51:05.085Z,1003
2022-10-16T09:54:05.165Z,1003
2022-10-16T09:57:05.086Z,1003
2022-10-16T10:00:05.174Z,1003
2022-10-16T10:03:05.151Z,1003
2022-10-16T10:06:06.807Z,1003
2022-10-16T10:09:05.134Z,1003
2022-10-16T10:12:05.153Z,1003
2022-10-16T10:15:05.129Z,1003
2022-10-16T10:18:05.167Z,1004
2022-10-16T10:24:05.133Z,1004
2022-10-16T10:27:05.160Z,1004
2022-10-16T10:30:05.456Z,1004
2022-10-16T10:33:05.119Z,1003
2022-10-16T10:36:05.191Z,1003
2022-10-16T10:39:05.227Z,1003
2022-10-16T10:42:05.162Z,1003
2022-10-16T10:45:05.268Z,1003
2022-10-16T10:48:05.121Z,1003
2022-10-16T10:51:05.152Z,1003
2022-10-16T10:54:05.238Z,1003
2022-10-16T10:57:05.244Z,1003
2022-10-16T11:00:05.144Z,1003
2022-10-16T11:03:05.125Z,1003
2022-10-16T11:06:05.164Z,1003
2022-10-16T11:09:06.140Z,1003
2022-10-16T11:12:05.111Z,1003
2022-10-16T11:15:05.127Z,1003
2022-10-16T11:18:05.084Z,1004
2022-10-16T11:21:05.146Z,1004
2022-10-16T11:24:05.134Z,1004
2022-10-16T11:27:05.134Z,1004
2022-10-16T11:30:05.182Z,1004
2022-10-16T11:33:05.110Z,1004
2022-10-16T11:36:05.179Z,1004
2022-10-16T11:39:05.062Z,1004
2022-10-16T11:42:05.171Z,1004
2022-10-16T11:45:05.103Z,1004
2022-10-16T11:48:06.284Z,1004
2022-10-16T11:51:05.099Z,1004
2022-10-16T11:54:05.296Z,1004
2022-10-16T11:57:05.131Z,1004
2022-10-16T12:00:05.215Z,1004
2022-10-16T12:03:05.287Z,1004
2022-10-16T12:06:05.157Z,1004
2022-10-16T12:09:05.161Z,1004
2022-10-16T12:12:05.153Z,1004
2022-10-16T12:15:59.870Z,1004
2022-10-16T12:18:05.156Z,1004
2022-10-16T12:21:05.153Z,1004
2022-10-16T12:24:05.130Z,1004
2022-10-16T12:27:05.138Z,1004
2022-10-16T12:30:05.282Z,1004
2022-10-16T12:33:05.186Z,1004
2022-10-16T12:36:05.199Z,1004
2022-10-16T12:39:05.169Z,1004
2022-10-16T12:42:05.231Z,1004
2022-10-16T12:45:05.123Z,1004
2022-10-16T12:48:05.166Z,1004
2022-10-16T12:51:05.169Z,1004
2022-10-16T12:54:05.167Z,1004
2022-10-16T12:57:05.157Z,1004
2022-10-16T13:00:05.221Z,1004
2022-10-16T13:03:07.771Z,1004
2022-10-16T13:06:05.149Z,1004
2022-10-16T13:09:05.157Z,1004
2022-10-16T13:12:05.130Z,1004
2022-10-16T13:15:05.171Z,1005
2022-10-16T13:18:05.098Z,1005
2022-10-16T13:21:05.149Z,1005
2022-10-16T13:24:05.130Z,1005
2022-10-16T13:27:05.137Z,1005
2022-10-16T13:30:05.217Z,1005
2022-10-16T13:33:05.177Z,1005
2022-10-16T13:36:05.083Z,1004
2022-10-16T13:39:05.120Z,1004
2022-10-16T13:45:05.135Z,1004
2022-10-16T13:48:05.147Z,1004
2022-10-16T13:51:05.206Z,1004
2022-10-16T13:54:05.170Z,1004
2022-10-16T13:57:31.535Z,1004
2022-10-16T14:00:05.333Z,1004
2022-10-16T14:03:05.156Z,1004
2022-10-16T14:06:05.184Z,1004
2022-10-16T14:09:05.164Z,1004
2022-10-16T14:12:05.179Z,1004
2022-10-16T14:15:05.189Z,1005
2022-10-16T14:18:05.170Z,1005
2022-10-16T14:21:06.418Z,1005
2022-10-16T14:24:05.416Z,1005
2022-10-16T14:27:05.201Z,1005
2022-10-16T14:30:05.248Z,1005
2022-10-16T14:33:05.183Z,1005
2022-10-16T14:36:05.175Z,1005
2022-10-16T14:39:05.194Z,1005
2022-10-16T14:42:05.138Z,1005
2022-10-16T14:45:05.223Z,1005
2022-10-16T14:48:05.128Z,1005
2022-10-16T14:51:05.211Z,1005
2022-10-16T14:54:05.272Z,1005
2022-10-16T14:57:05.186Z,1005
2022-10-16T15:00:05.297Z,1005
2022-10-16T15:03:05.156Z,1005
2022-10-16T15:06:05.151Z,1005
2022-10-16T15:09:05.154Z,1005
2022-10-16T15:12:05.215Z,1005
2022-10-16T15:15:05.151Z,1005
2022-10-16T15:18:05.164Z,1005
2022-10-16T15:21:05.116Z,1005
2022-10-16T15:24:05.133Z,1005
2022-10-16T15:27:05.126Z,1005
2022-10-16T15:30:05.293Z,1005
2022-10-16T15:33:05.091Z,1005
2022-10-16T15:36:05.193Z,1005
2022-10-16T15:39:05.122Z,1005
2022-10-16T15:42:05.281Z,1005
2022-10-16T15:45:05.235Z,1005
2022-10-16T15:48:05.277Z,1005
2022-10-16T15:51:05.400Z,1005
2022-10-16T15:54:05.420Z,1005
2022-10-16T15:57:05.129Z,1005
2022-10-16T16:00:12.908Z,1005
2022-10-16T16:03:05.751Z,1006
2022-10-16T16:06:05.141Z,1006
2022-10-16T16:09:05.335Z,1005
2022-10-16T16:12:05.114Z,1005
2022-10-16T16:15:10.304Z,1005
2022-10-16T16:21:05.076Z,1005
2022-10-16T16:24:05.181Z,1005
2022-10-16T16:27:05.244Z,1005
2022-10-16T16:30:05.133Z,1005
2022-10-16T16:33:05.119Z,1005
2022-10-16T16:36:05.379Z,1006
2022-10-16T16:39:05.119Z,1006
2022-10-16T16:42:05.124Z,1006
2022-10-16T16:45:05.233Z,1006
2022-10-16T16:48:05.202Z,1006
2022-10-16T16:51:05.262Z,1006
2022-10-16T16:54:05.127Z,1006
2022-10-16T16:57:05.138Z,1006
2022-10-16T17:00:05.404Z,1006
2022-10-16T17:03:05.130Z,1006
2022-10-16T17:06:05.218Z,1006
2022-10-16T17:09:05.192Z,1006
2022-10-16T17:12:05.148Z,1006
2022-10-16T17:15:05.201Z,1006
2022-10-16T17:18:05.373Z,1006
2022-10-16T17:21:05.204Z,1006
2022-10-16T17:24:05.156Z,1006
2022-10-16T17:27:05.124Z,1006
2022-10-16T17:30:05.213Z,1006
2022-10-16T17:33:05.070Z,1006
2022-10-16T17:36:05.116Z,1006
2022-10-16T17:39:05.102Z,1006
2022-10-16T17:42:05.121Z,1006
2022-10-16T17:45:05.097Z,1006
2022-10-16T17:48:05.124Z,1007
2022-10-16T17:51:05.092Z,1007
2022-10-16T17:54:05.107Z,1006
2022-10-16T17:57:05.067Z,1006
2022-10-16T18:00:05.218Z,1006
2022-10-16T18:03:05.115Z,1007
2022-10-16T18:06:05.154Z,1007
2022-10-16T18:09:05.045Z,1007
2022-10-16T18:12:05.078Z,1007
2022-10-16T18:15:05.135Z,1007
2022-10-16T18:18:05.077Z,1007
2022-10-16T18:21:05.114Z,1007
2022-10-16T18:24:05.070Z,1007
2022-10-16T18:27:05.122Z,1007
2022-10-16T18:30:05.157Z,1007
2022-10-16T18:33:05.115Z,1007
2022-10-16T18:36:05.105Z,1007
2022-10-16T18:39:05.207Z,1007
2022-10-16T18:42:05.134Z,1007
2022-10-16T18:45:05.140Z,1007
2022-10-16T18:48:05.134Z,1007
2022-10-16T18:51:05.042Z,1007
2022-10-16T18:54:05.103Z,1007
2022-10-16T18:57:05.103Z,1007
2022-10-16T19:00:05.140Z,1007
2022-10-16T19:03:05.119Z,1007
2022-10-16T19:06:05.138Z,1007
2022-10-16T19:09:05.084Z,1007
2022-10-16T19:12:05.121Z,1007
2022-10-16T19:15:05.087Z,1007
2022-10-16T19:18:05.109Z,1007
2022-10-16T19:24:05.093Z,1007
2022-10-16T19:27:05.076Z,1007
2022-10-16T19:30:05.348Z,1007
2022-10-16T19:33:05.164Z,1007
2022-10-16T19:36:05.061Z,1007
2022-10-16T19:39:05.161Z,1008
2022-10-16T19:42:05.116Z,1007
2022-10-16T19:45:05.142Z,1007
2022-10-16T19:48:05.072Z,1007
2022-10-16T19:51:05.084Z,1007
2022-10-16T19:54:05.103Z,1007
2022-10-16T19:57:05.147Z,1007
2022-10-16T20:00:05.163Z,1007
2022-10-16T20:03:05.131Z,1007
2022-10-16T20:06:05.086Z,1007
2022-10-16T20:09:05.130Z,1007
2022-10-16T20:12:05.117Z,1007
2022-10-16T20:15:05.087Z,1007
2022-10-16T20:18:05.142Z,1007
2022-10-16T20:21:05.067Z,1007
2022-10-16T20:24:05.145Z,1007
2022-10-16T20:27:05.097Z,1008
2022-10-16T20:30:05.119Z,1008
2022-10-16T20:33:05.119Z,1008
2022-10-16T20:36:05.109Z,1008
2022-10-16T20:39:05.116Z,1008
2022-10-16T20:42:05.109Z,1008
2022-10-16T20:45:05.355Z,1008
2022-10-16T20:48:05.092Z,1008
2022-10-16T20:51:05.147Z,1008
2022-10-16T20:54:05.091Z,1008
2022-10-16T20:57:05.075Z,1008
2022-10-16T21:00:05.093Z,1008
2022-10-16T21:03:05.083Z,1008
2022-10-16T21:06:05.163Z,1008
2022-10-16T21:09:05.064Z,1008
2022-10-16T21:12:05.077Z,1008
2022-10-16T21:15:19.956Z,1008
2022-10-16T21:18:05.135Z,1008
2022-10-16T21:21:05.071Z,1008
2022-10-16T21:24:05.102Z,1008
2022-10-16T21:27:05.094Z,1008
2022-10-16T21:30:05.152Z,1008
2022-10-16T21:33:05.113Z,1008
2022-10-16T21:36:05.086Z,1008
2022-10-16T21:39:05.097Z,1008
2022-10-16T21:42:05.089Z,1008
2022-10-16T21:45:05.099Z,1008
2022-10-16T21:48:05.142Z,1008
2022-10-16T21:51:05.094Z,1008
2022-10-16T21:54:05.085Z,1008
2022-10-16T21:57:05.202Z,1008
2022-10-16T22:00:11.508Z,1008
2022-10-16T22:03:05.247Z,1008
2022-10-16T22:06:11.371Z,1008
2022-10-16T22:09:05.234Z,1008
2022-10-16T22:12:05.124Z,1008
2022-10-16T22:15:05.304Z,1008
2022-10-16T22:18:05.089Z,1008
2022-10-16T22:21:05.089Z,1008
2022-10-16T22:24:05.075Z,1008
2022-10-16T22:27:05.089Z,1008
2022-10-16T22:30:05.105Z,1008
2022-10-16T22:33:05.070Z,1008
2022-10-16T22:36:05.196Z,1008
2022-10-16T22:39:05.093Z,1008
2022-10-16T22:42:05.138Z,1008
2022-10-16T22:45:05.098Z,1008
2022-10-16T22:48:05.098Z,1008
2022-10-16T22:51:05.100Z,1008
2022-10-16T22:54:05.073Z,1008
2022-10-16T22:57:05.101Z,1008
2022-10-16T23:00:05.142Z,1008
2022-10-16T23:03:05.250Z,1008
2022-10-16T23:06:05.110Z,1008
2022-10-16T23:09:05.085Z,1008
2022-10-16T23:12:05.076Z,1008
2022-10-16T23:15:05.180Z,1008
2022-10-16T23:18:05.108Z,1008
2022-10-16T23:21:05.103Z,1008
2022-10-16T23:24:05.077Z,1008
2022-10-16T23:27:05.101Z,1008
2022-10-16T23:30:05.085Z,1008
2022-10-16T23:33:05.112Z,1008
2022-10-16T23:36:05.089Z,1008
2022-10-16T23:39:05.133Z,1008
2022-10-16T23:42:05.126Z,1008
2022-10-16T23:45:05.048Z,1008
2022-10-16T23:48:05.120Z,1008
2022-10-16T23:51:05.092Z,1008
2022-10-16T23:54:05.091Z,1008
2022-10-16T23:57:05.076Z,1008
